Latest Weather Observations for Mildura

IDN60801

Issued at 11:02 am EDT Saturday 3 December 2016 (issued every 30 minutes, with the page automatically refreshed every 10 minutes)

About weather observations | Map of weather stations | Latest weather observations for NSW | Other Formats
Station Details ID: 076031 Name: MILDURA AIRPORT Lat: -34.24 Lon: 142.09 Height: 50.0 m
Data from the previous 72 hours. | See also: Recent months at Mildura
Date/Time
EDT
Temp
°C
App
Temp
°C
Dew
Point
°C
Rel
Hum
%
Delta-T
°C
Wind Press
QNH
hPa
Press
MSL
hPa
Rain since
9am
mm
Dir  Spd
km/h
Gust
km/h
Spd
kts
Gust
kts
03/11:00am 25.4 23.2 8.0 33 9.3 E 9 15 5 8 1013.9 1013.7 -
03/10:30am 24.8 22.4 8.7 36 8.7 ESE 11 19 6 10 1014.2 1014.0 0.0
03/10:00am 22.6 19.9 9.0 42 7.3 ESE 13 17 7 9 1014.1 1013.9 0.0
03/09:30am 20.8 18.0 8.4 45 6.5 SE 13 20 7 11 1014.2 1014.0 0.0
03/09:00am 19.9 16.9 7.9 46 6.2 SE 13 17 7 9 1014.1 1013.9 0.0
03/08:30am 18.3 15.2 7.1 48 5.6 SSE 13 17 7 9 1013.9 1013.7 0.0
03/08:00am 17.0 13.3 6.5 50 5.2 SSE 15 19 8 10 1013.6 1013.4 0.0
03/07:30am 15.5 12.4 5.7 52 4.7 SSE 11 19 6 10 1013.3 1013.1 0.0
03/07:00am 14.2 11.0 5.0 54 4.3 S 11 17 6 9 1012.9 1012.7 0.0
03/06:30am 13.5 10.5 4.1 53 4.3 S 9 13 5 7 1012.7 1012.5 0.0
03/06:00am 13.3 10.2 3.7 52 4.3 S 9 11 5 6 1012.3 1012.1 0.0
03/05:30am 13.8 10.7 3.6 50 4.6 S 9 13 5 7 1012.0 1011.8 0.0
03/05:00am 14.3 11.2 3.5 48 4.9 SSE 9 13 5 7 1011.6 1011.4 0.0
03/04:30am 14.8 11.3 3.3 46 5.2 S 11 17 6 9 1011.6 1011.4 0.0
03/04:00am 15.4 11.8 2.9 43 5.7 S 11 15 6 8 1011.6 1011.4 0.0
03/03:30am 16.1 12.5 2.9 41 6.0 S 11 17 6 9 1011.5 1011.3 0.0
03/03:00am 16.7 12.7 2.7 39 6.4 S 13 19 7 10 1011.6 1011.4 0.0
03/02:30am 17.4 13.1 3.0 38 6.6 SSE 15 19 8 10 1012.1 1011.9 0.0
03/02:00am 18.0 14.1 3.5 38 6.8 SSE 13 20 7 11 1012.2 1012.0 0.0
03/01:30am 18.7 14.9 3.7 37 7.1 SSE 13 19 7 10 1012.4 1012.2 0.0
03/01:00am 19.4 15.7 4.4 37 7.2 SSE 13 19 7 10 1012.8 1012.6 0.0
03/12:30am 20.0 16.6 6.0 40 7.0 S 13 20 7 11 1013.2 1013.0 0.0
03/12:00am 20.5 18.0 6.5 40 7.1 S 9 13 5 7 1013.2 1013.0 0.0
 
Date/Time
EDT
Temp
°C
App
Temp
°C
Dew
Point
°C
Rel
Hum
%
Delta-T
°C
Wind Press
QNH
hPa
Press
MSL
hPa
Rain since
9am
mm
Dir  Spd
km/h
Gust
km/h
Spd
kts
Gust
kts
02/11:30pm 21.8 18.9 6.5 37 7.8 S 11 19 6 10 1013.1 1012.9 0.0
02/11:00pm 20.4 18.5 7.7 44 6.6 S 7 9 4 5 1012.8 1012.6 0.0
02/10:30pm 20.9 18.9 7.2 41 7.0 S 7 9 4 5 1012.7 1012.5 0.0
02/10:00pm 22.1 19.7 7.1 38 7.7 S 9 11 5 6 1012.4 1012.2 0.0
02/09:30pm 22.1 19.8 7.5 39 7.6 SSW 9 13 5 7 1012.4 1012.2 0.0
02/09:00pm 23.0 21.3 7.5 37 8.1 NE 6 6 3 3 1011.8 1011.6 0.0
02/08:30pm 24.3 22.4 7.4 34 8.9 NNE 7 9 4 5 1011.5 1011.3 0.0
02/08:00pm 26.0 23.5 6.6 29 10.2 NE 9 11 5 6 1011.2 1011.0 0.0
02/07:30pm 27.3 24.7 6.1 26 11.1 NE 9 13 5 7 1011.0 1010.8 0.0
02/07:00pm 28.4 26.3 5.9 24 11.8 ENE 6 9 3 5 1010.8 1010.6 0.0
02/06:30pm 29.3 27.0 4.7 21 12.7 S 6 11 3 6 1010.6 1010.4 0.0
02/06:00pm 29.2 26.2 4.0 20 12.9 WSW 9 17 5 9 1010.5 1010.3 0.0
02/05:30pm 28.9 26.4 3.7 20 12.8 S 6 13 3 7 1010.6 1010.4 0.0
02/05:00pm 29.5 26.9 4.2 20 13.0 NW 7 11 4 6 1010.6 1010.4 0.0
02/04:30pm 28.6 25.2 4.2 21 12.4 SE 11 20 6 11 1010.8 1010.6 0.0
02/04:00pm 28.3 25.5 5.2 23 12.0 SSE 9 15 5 8 1010.8 1010.6 0.0
02/03:30pm 28.1 25.2 4.4 22 12.1 S 9 15 5 8 1011.1 1010.9 0.0
02/03:00pm 28.8 26.2 6.2 24 11.9 SE 9 17 5 9 1011.5 1011.3 0.0
02/02:30pm 27.8 25.4 7.1 27 11.0 SSE 9 13 5 7 1011.6 1011.4 0.0
02/02:00pm 25.7 22.1 4.8 26 10.6 SSE 13 26 7 14 1011.6 1011.4 0.0
02/01:30pm 25.4 21.9 5.6 28 10.1 S 13 22 7 12 1011.9 1011.7 0.0
02/01:00pm 24.3 20.8 5.6 30 9.5 SSE 13 20 7 11 1012.5 1012.3 0.0
02/12:30pm 23.7 20.3 6.0 32 9.0 S 13 22 7 12 1012.6 1012.4 0.0
02/12:00pm 23.4 19.6 7.5 36 8.3 S 17 28 9 15 1012.6 1012.4 0.0
02/11:30am 22.9 19.5 7.8 38 7.9 S 15 28 8 15 1013.0 1012.8 0.0
02/11:00am 20.8 17.5 8.1 44 6.6 S 15 22 8 12 1013.1 1012.9 0.0
02/10:30am 20.5 17.4 8.8 47 6.2 S 15 20 8 11 1013.2 1013.0 0.0
02/10:00am 19.1 16.3 8.7 51 5.4 S 13 20 7 11 1013.0 1012.8 0.0
02/09:30am 18.3 15.1 8.3 52 5.2 S 15 22 8 12 1013.0 1012.8 0.0
02/09:00am 17.5 14.7 8.4 55 4.7 SSW 13 20 7 11 1013.1 1012.9 0.0
02/08:30am 17.3 14.4 8.2 55 4.7 S 13 20 7 11 1012.6 1012.4 0.0
02/08:00am 16.7 13.4 8.1 57 4.4 S 15 24 8 13 1011.9 1011.7 0.0
02/07:30am 15.7 12.7 7.7 59 4.0 SSW 13 19 7 10 1011.8 1011.6 0.0
02/07:00am 15.2 12.6 7.7 61 3.7 SSW 11 20 6 11 1011.2 1011.0 0.0
02/06:30am 14.8 12.9 7.6 62 3.6 SW 7 13 4 7 1011.0 1010.8 0.0
02/06:00am 14.8 12.5 7.6 62 3.6 SW 9 15 5 8 1010.3 1010.1 0.0
02/05:30am 15.4 13.1 7.4 59 4.0 SSW 9 13 5 7 1009.5 1009.3 0.0
02/05:00am 16.0 14.1 7.7 58 4.2 SSW 7 11 4 6 1009.2 1009.0 0.0
02/04:30am 17.1 14.9 7.7 54 4.7 SSW 9 11 5 6 1008.6 1008.4 0.0
02/04:00am 17.7 15.0 7.4 51 5.2 S 11 20 6 11 1008.2 1008.0 0.0
02/03:30am 18.1 15.0 7.2 49 5.5 S 13 20 7 11 1007.9 1007.7 0.0
02/03:00am 18.5 15.3 7.0 47 5.8 S 13 22 7 12 1007.7 1007.5 0.0
02/02:30am 18.9 15.6 6.4 44 6.2 S 13 17 7 9 1007.8 1007.6 0.0
02/02:00am 19.6 16.6 6.0 41 6.8 S 11 17 6 9 1007.9 1007.7 0.0
02/01:30am 20.3 17.0 4.8 36 7.6 S 11 20 6 11 1008.1 1007.9 0.0
02/01:00am 21.2 17.2 4.7 34 8.1 SSW 15 24 8 13 1008.3 1008.1 0.0
02/12:30am 21.9 17.9 2.6 28 9.1 SSW 13 28 7 15 1008.4 1008.2 0.0
02/12:00am 22.0 18.9 1.6 26 9.5 SSW 7 9 4 5 1008.4 1008.2 0.0
 
Date/Time
EDT
Temp
°C
App
Temp
°C
Dew
Point
°C
Rel
Hum
%
Delta-T
°C
Wind Press
QNH
hPa
Press
MSL
hPa
Rain since
9am
mm
Dir  Spd
km/h
Gust
km/h
Spd
kts
Gust
kts
01/11:30pm 22.6 19.4 1.0 24 10.0 SSW 7 11 4 6 1008.4 1008.2 0.0
01/11:00pm 22.6 19.3 0.4 23 10.1 SW 7 9 4 5 1008.2 1008.0 0.0
01/10:30pm 22.9 20.2 2.4 26 9.7 SW 6 7 3 4 1008.1 1007.9 0.0
01/10:00pm 22.8 20.1 2.8 27 9.6 W 6 9 3 5 1008.2 1008.0 0.0
01/09:30pm 23.2 20.7 3.7 28 9.5 W 6 7 3 4 1007.8 1007.6 0.0
01/09:00pm 24.2 21.3 1.2 22 10.8 WSW 6 7 3 4 1007.4 1007.2 0.0
01/08:30pm 25.4 22.2 0.8 20 11.5 WSW 7 9 4 5 1007.3 1007.1 0.0
01/08:00pm 26.6 22.8 -0.4 17 12.5 SW 9 15 5 8 1007.0 1006.8 0.0
01/07:30pm 27.5 23.5 0.3 17 12.8 WSW 11 19 6 10 1006.6 1006.4 0.0
01/07:00pm 27.7 23.9 2.0 19 12.6 W 11 15 6 8 1006.1 1005.9 0.0
01/06:30pm 27.9 23.9 0.6 17 13.0 WSW 11 19 6 10 1006.2 1006.0 0.0
01/06:00pm 27.5 23.3 3.9 22 11.9 WNW 15 26 8 14 1006.7 1006.5 0.0
01/05:30pm 27.8 22.1 2.8 20 12.4 W 22 32 12 17 1007.0 1006.8 0.0
01/05:00pm 27.7 21.8 -2.2 14 13.6 W 19 28 10 15 1006.8 1006.6 0.0
01/04:30pm 29.0 23.0 -1.2 14 14.0 W 20 32 11 17 1006.5 1006.3 0.0
01/04:00pm 29.0 22.6 0.7 16 13.6 WNW 24 35 13 19 1006.7 1006.5 0.0
01/03:30pm 28.7 24.1 3.5 20 12.7 WNW 17 33 9 18 1006.8 1006.6 0.0
01/03:00pm 28.2 24.4 3.8 21 12.4 W 13 33 7 18 1006.8 1006.6 0.0
01/02:30pm 27.6 23.5 6.4 26 11.2 W 17 26 9 14 1007.4 1007.2 0.0
01/02:00pm 27.5 23.7 7.4 28 10.8 NW 17 30 9 16 1007.8 1007.6 0.0
01/01:30pm 26.6 22.7 7.1 29 10.3 NW 17 28 9 15 1008.1 1007.9 0.0
01/01:00pm 26.5 22.8 8.0 31 10.0 WNW 17 28 9 15 1008.3 1008.1 0.0
01/12:30pm 25.9 22.8 8.8 34 9.3 WNW 15 30 8 16 1008.6 1008.4 0.0
01/12:00pm 25.2 22.5 9.1 36 8.8 W 13 22 7 12 1009.0 1008.8 0.0
01/11:30am 24.3 22.7 8.7 37 8.4 WSW 7 19 4 10 1009.1 1008.9 0.0
01/11:00am 23.4 22.2 9.4 41 7.6 SW 6 15 3 8 1009.1 1008.9 0.0
01/10:30am 22.4 21.6 10.9 48 6.4 SSW 6 13 3 7 1009.1 1009.0 0.0
01/10:00am 20.5 19.9 10.3 52 5.5 ENE 4 9 2 5 1009.4 1009.3 0.0
01/09:30am 19.6 19.5 10.9 57 4.7 W 2 7 1 4 1009.3 1009.2 0.0
01/09:00am 17.7 16.4 10.1 61 4.0 SSE 7 13 4 7 1009.2 1009.1 0.0
01/08:30am 16.5 15.2 9.9 65 3.5 SSW 7 11 4 6 1009.4 1009.3 0.0
01/08:00am 15.0 13.7 9.1 68 3.0 SSW 6 9 3 5 1009.2 1009.1 0.0
01/07:30am 13.6 11.7 9.1 74 2.3 SSW 9 11 5 6 1008.7 1008.6 0.0
01/07:00am 11.4 9.3 8.4 82 1.5 SW 9 11 5 6 1008.7 1008.6 0.0
01/06:30am 10.2 8.6 8.1 87 1.0 SW 6 9 3 5 1008.4 1008.3 0.0
01/06:00am 10.4 8.6 8.0 85 1.2 WSW 7 9 4 5 1008.1 1008.0 0.0
01/05:30am 11.0 9.3 8.2 83 1.4 WSW 7 11 4 6 1008.2 1008.1 0.0
01/05:00am 11.5 9.8 8.5 82 1.5 W 7 9 4 5 1007.8 1007.7 0.0
01/04:30am 12.2 10.2 8.5 78 1.8 WSW 9 11 5 6 1007.7 1007.6 0.0
01/04:00am 12.4 11.4 8.7 78 1.9 WSW 4 9 2 5 1007.8 1007.7 0.0
01/03:30am 13.1 12.8 8.6 74 2.3 CALM 0 6 0 3 1007.8 1007.7 0.0
01/03:00am 13.7 11.7 8.7 72 2.5 SSW 9 13 5 7 1008.1 1008.0 0.0
01/02:30am 14.6 12.2 8.8 68 2.9 SSW 11 15 6 8 1008.1 1008.0 0.0
01/02:00am 15.5 12.7 8.7 64 3.5 SSW 13 19 7 10 1008.6 1008.5 0.0
01/01:30am 16.3 13.5 8.5 60 4.0 SSW 13 20 7 11 1009.0 1008.9 0.0
01/01:00am 16.2 14.1 8.2 59 4.1 SSW 9 13 5 7 1009.3 1009.2 0.0
01/12:30am 17.0 14.7 7.6 54 4.7 SSW 9 13 5 7 1009.6 1009.5 0.0
01/12:00am 17.8 15.5 7.5 51 5.2 SSW 9 15 5 8 1009.7 1009.6 0.0
 
Date/Time
EDT
Temp
°C
App
Temp
°C
Dew
Point
°C
Rel
Hum
%
Delta-T
°C
Wind Press
QNH
hPa
Press
MSL
hPa
Rain since
9am
mm
Dir  Spd
km/h
Gust
km/h
Spd
kts
Gust
kts
30/11:30pm 18.1 15.1 7.5 50 5.4 SW 13 19 7 10 1009.7 1009.6 0.0
30/11:00pm 16.0 16.0 9.9 67 3.2 CALM 0 0 0 0 1009.4 1009.3 0.0
30/10:30pm 16.8 16.8 9.7 63 3.7 CALM 0 0 0 0 1009.3 1009.2 0.0
30/10:00pm 17.0 16.5 9.4 61 4.0 NE 2 11 1 6 1009.2 1009.1 0.0
30/09:30pm 18.5 17.2 9.3 55 4.8 W 6 7 3 4 1008.9 1008.8 0.0
30/09:00pm 20.0 19.9 9.3 50 5.7 CALM 0 6 0 3 1008.6 1008.5 0.0
30/08:30pm 22.1 20.5 8.6 42 7.2 WSW 7 11 4 6 1008.4 1008.3 0.0
30/08:00pm 23.7 20.8 8.2 37 8.3 SW 13 22 7 12 1008.2 1008.1 0.0
30/07:30pm 24.7 21.4 8.2 35 8.8 SW 15 28 8 15 1008.2 1008.1 0.0
30/07:00pm 24.8 22.9 9.1 37 8.5 W 9 15 5 8 1008.2 1008.1 0.0
30/06:30pm 25.1 22.9 9.4 37 8.6 SW 11 20 6 11 1008.0 1007.9 0.0
30/06:00pm 24.6 22.4 9.3 38 8.4 W 11 19 6 10 1007.8 1007.7 0.0
30/05:30pm 24.3 22.1 9.5 39 8.1 WSW 11 19 6 10 1008.0 1007.9 0.0
30/05:00pm 23.5 22.3 10.2 43 7.3 WNW 7 20 4 11 1008.2 1008.1 0.0
30/04:30pm 22.4 20.8 10.2 46 6.7 NW 9 17 5 9 1008.6 1008.5 0.0
30/04:00pm 22.9 20.1 10.0 44 7.1 WNW 15 24 8 13 1009.0 1008.9 0.0
30/03:30pm 20.7 18.6 9.9 50 5.8 WNW 11 15 6 8 1009.1 1009.0 0.0
30/03:00pm 20.1 18.4 9.9 52 5.5 NW 9 17 5 9 1009.3 1009.2 0.0
30/02:30pm 20.7 17.3 9.0 47 6.2 W 17 24 9 13 1009.8 1009.7 0.0
30/02:00pm 21.3 17.3 9.2 46 6.5 W 20 32 11 17 1010.4 1010.3 0.0
30/01:30pm 21.6 18.6 9.2 45 6.6 WSW 15 24 8 13 1010.2 1010.1 0.0
30/01:00pm 20.0 17.6 10.1 53 5.3 WSW 13 19 7 10 1010.3 1010.2 0.0
30/12:30pm 19.3 17.0 10.3 56 4.8 WSW 13 20 7 11 1010.9 1010.8 0.0
30/12:00pm 18.5 14.9 10.6 60 4.3 WSW 20 35 11 19 1011.5 1011.4 0.0
30/11:30am 18.5 16.2 10.6 60 4.3 W 13 20 7 11 1011.2 1011.1 0.0

Other Formats:

Comma delimited format used in spreadsheet applications
http://www.bom.gov.au/fwo/IDN60801/IDN60801.94693.axf

JavaScript Object Notation format (JSON) in row-major order
http://www.bom.gov.au/fwo/IDN60801/IDN60801.94693.json